createdAt,value
2023-09-20T00:01:45.099Z,22.50
2023-09-20T00:04:12.299Z,1.83
2023-09-20T00:06:39.424Z,1.73
2023-09-20T00:09:06.632Z,2.42
2023-09-20T00:11:33.754Z,9.57
2023-09-20T00:14:07.179Z,1.90
2023-09-20T00:16:34.401Z,2.53
2023-09-20T00:19:01.638Z,1.85
2023-09-20T00:21:28.762Z,1.00
2023-09-20T00:23:58.718Z,1.98
2023-09-20T00:26:25.942Z,2.20
2023-09-20T00:28:57.544Z,0.73
2023-09-20T00:31:24.727Z,1.60
2023-09-20T00:33:55.662Z,1.30
2023-09-20T00:36:25.515Z,2.03
2023-09-20T00:39:01.496Z,0.70
2023-09-20T00:41:28.748Z,1.85
2023-09-20T00:43:56.074Z,0.95
2023-09-20T00:46:23.508Z,1.33
2023-09-20T00:48:55.759Z,1.90
2023-09-20T00:51:23.722Z,1.63
2023-09-20T00:53:54.236Z,1.10
2023-09-20T00:56:22.594Z,1.13
2023-09-20T00:58:53.860Z,0.90
2023-09-20T01:01:21.680Z,0.88
2023-09-20T01:03:49.481Z,1.38
2023-09-20T01:06:18.762Z,2.60
2023-09-20T01:08:48.573Z,1.20
2023-09-20T01:11:16.675Z,1.17
2023-09-20T01:13:46.966Z,2.35
2023-09-20T01:16:16.504Z,1.53
2023-09-20T01:18:45.623Z,2.40
2023-09-20T01:21:15.164Z,1.17
2023-09-20T01:23:46.038Z,2.50
2023-09-20T01:26:13.506Z,1.27
2023-09-20T01:28:41.235Z,3.05
2023-09-20T01:31:08.815Z,1.08
2023-09-20T01:33:38.734Z,1.10
2023-09-20T01:36:06.086Z,2.03
2023-09-20T01:38:33.851Z,2.13
2023-09-20T01:41:01.139Z,0.90
2023-09-20T01:43:28.406Z,2.80
2023-09-20T01:45:55.919Z,1.08
2023-09-20T01:48:24.169Z,2.08
2023-09-20T01:50:55.306Z,2.63
2023-09-20T01:53:26.407Z,2.00
2023-09-20T01:55:56.838Z,0.82
2023-09-20T01:58:25.581Z,1.10
2023-09-20T02:00:52.714Z,1.27
2023-09-20T02:03:20.974Z,2.23
2023-09-20T02:05:48.871Z,0.93
2023-09-20T02:08:17.500Z,1.60
2023-09-20T02:10:45.651Z,1.92
2023-09-20T02:13:12.915Z,1.02
2023-09-20T02:15:42.467Z,0.82
2023-09-20T02:18:10.420Z,1.92
2023-09-20T02:20:40.224Z,2.85
2023-09-20T02:23:08.965Z,1.40
2023-09-20T02:25:36.313Z,1.60
2023-09-20T02:28:08.714Z,1.83
2023-09-20T02:30:37.663Z,1.30
2023-09-20T02:33:06.872Z,1.05
2023-09-20T02:35:34.819Z,1.73
2023-09-20T02:38:08.063Z,1.67
2023-09-20T02:40:36.651Z,1.65
2023-09-20T02:43:05.251Z,1.40
2023-09-20T02:45:35.542Z,2.40
2023-09-20T02:48:10.600Z,1.73
2023-09-20T02:50:38.309Z,1.87
2023-09-20T02:53:07.082Z,2.10
2023-09-20T02:55:36.703Z,1.73
2023-09-20T02:58:04.170Z,1.95
2023-09-20T03:00:34.479Z,1.40
2023-09-20T03:03:03.571Z,1.15
2023-09-20T03:05:35.841Z,1.40
2023-09-20T03:08:05.463Z,1.10
2023-09-20T03:10:32.883Z,2.17
2023-09-20T03:13:00.580Z,1.05
2023-09-20T03:15:29.529Z,2.77
2023-09-20T03:18:02.077Z,1.10
2023-09-20T03:20:33.454Z,1.75
2023-09-20T03:23:01.677Z,1.35
2023-09-20T03:25:37.913Z,2.45
2023-09-20T03:28:09.046Z,1.30
2023-09-20T03:30:38.881Z,2.10
2023-09-20T03:33:10.173Z,1.40
2023-09-20T03:35:38.413Z,2.20
2023-09-20T03:38:05.707Z,1.42
2023-09-20T03:40:33.502Z,1.10
2023-09-20T03:43:04.038Z,2.90
2023-09-20T03:45:33.986Z,2.40
2023-09-20T03:48:02.793Z,3.72
2023-09-20T03:50:30.749Z,2.10
2023-09-20T03:52:58.020Z,3.25
2023-09-20T03:55:25.121Z,1.60
2023-09-20T03:57:52.498Z,1.40
2023-09-20T04:00:30.000Z,1.75
2023-09-20T04:02:58.205Z,3.17
2023-09-20T04:05:43.419Z,3.00
2023-09-20T04:08:12.854Z,2.90
2023-09-20T04:10:40.912Z,4.07
2023-09-20T04:13:11.090Z,1.40
2023-09-20T04:15:42.255Z,2.20
2023-09-20T04:18:10.383Z,1.93
2023-09-20T04:20:49.151Z,2.63
2023-09-20T04:23:17.990Z,2.05
2023-09-20T04:25:45.200Z,1.45
2023-09-20T04:28:15.352Z,2.33
2023-09-20T04:30:43.070Z,2.80
2023-09-20T04:33:14.078Z,1.30
2023-09-20T04:35:42.109Z,2.63
2023-09-20T04:38:09.758Z,3.20
2023-09-20T04:40:36.971Z,2.00
2023-09-20T04:43:04.233Z,1.63
2023-09-20T04:45:31.406Z,2.70
2023-09-20T04:47:58.862Z,2.42
2023-09-20T04:50:26.444Z,2.05
2023-09-20T04:52:53.702Z,3.08
2023-09-20T04:55:20.944Z,1.80
2023-09-20T04:57:48.448Z,2.78
2023-09-20T05:00:17.837Z,2.20
2023-09-20T05:02:45.673Z,3.70
2023-09-20T05:05:13.344Z,2.53
2023-09-20T05:07:41.511Z,2.35
2023-09-20T05:10:08.847Z,1.83
2023-09-20T05:12:36.045Z,2.88
2023-09-20T05:15:04.232Z,2.53
2023-09-20T05:17:31.533Z,2.95
2023-09-20T05:19:59.499Z,1.83
2023-09-20T05:22:26.590Z,2.03
2023-09-20T05:24:53.679Z,2.42
2023-09-20T05:27:21.981Z,2.33
2023-09-20T05:29:52.321Z,1.77
2023-09-20T05:32:19.422Z,1.85
2023-09-20T05:34:47.480Z,3.50
2023-09-20T05:37:17.483Z,2.45
2023-09-20T05:39:49.390Z,2.85
2023-09-20T05:42:16.837Z,2.30
2023-09-20T05:44:44.353Z,1.73
2023-09-20T05:47:11.529Z,1.70
2023-09-20T05:49:38.720Z,1.48
2023-09-20T05:52:07.574Z,3.05
2023-09-20T05:54:35.007Z,2.90
2023-09-20T05:57:02.182Z,1.60
2023-09-20T05:59:30.197Z,2.85
2023-09-20T06:01:57.485Z,1.80
2023-09-20T06:04:24.677Z,1.65
2023-09-20T06:06:55.150Z,138.35
2023-09-20T06:09:22.721Z,173.88
2023-09-20T06:11:49.948Z,857.35
2023-09-20T06:14:20.446Z,909.65
2023-09-20T06:16:47.611Z,905.58
2023-09-20T06:19:16.005Z,889.72
2023-09-20T06:21:47.485Z,917.10
2023-09-20T06:24:14.832Z,915.58
2023-09-20T06:26:45.177Z,916.97
2023-09-20T06:29:16.002Z,924.30
2023-09-20T06:31:43.142Z,910.65
2023-09-20T06:34:10.438Z,877.72
2023-09-20T06:36:37.611Z,588.53
2023-09-20T06:39:09.353Z,3.85
2023-09-20T06:41:39.085Z,2.77
2023-09-20T06:44:09.638Z,2.20
2023-09-20T06:46:43.193Z,1.50
2023-09-20T06:49:10.671Z,2.40
2023-09-20T06:51:38.060Z,1.67
2023-09-20T06:54:05.352Z,2.05
2023-09-20T06:56:36.194Z,4.05
2023-09-20T06:59:03.533Z,5.78
2023-09-20T07:01:30.639Z,1.73
2023-09-20T07:03:57.761Z,1.50
2023-09-20T07:06:26.031Z,3.85
2023-09-20T07:08:53.248Z,2.25
2023-09-20T07:11:20.407Z,2.70
2023-09-20T07:13:47.895Z,1.50
2023-09-20T07:16:15.803Z,4.60
2023-09-20T07:18:45.331Z,1.60
2023-09-20T07:21:17.459Z,1.77
2023-09-20T07:23:44.769Z,2.33
2023-09-20T07:26:13.385Z,2.72
2023-09-20T07:28:44.016Z,3.88
2023-09-20T07:31:11.267Z,2.42
2023-09-20T07:33:39.627Z,1.95
2023-09-20T07:36:07.046Z,1.83
2023-09-20T07:38:36.461Z,1.80
2023-09-20T07:41:07.058Z,2.67
2023-09-20T07:43:34.308Z,5.72
2023-09-20T07:46:05.414Z,2.55
2023-09-20T07:48:34.240Z,3.50
2023-09-20T07:51:14.224Z,6.05
2023-09-20T07:53:43.616Z,30.92
2023-09-20T07:56:15.117Z,1.60
2023-09-20T07:58:43.023Z,3.20
2023-09-20T08:01:39.796Z,2.83
2023-09-20T08:04:08.024Z,1.60
2023-09-20T08:06:36.426Z,15.82
2023-09-20T08:09:06.974Z,171.38
2023-09-20T08:11:34.729Z,383.48
2023-09-20T08:14:02.647Z,257.05
2023-09-20T08:16:51.889Z,701.57
2023-09-20T08:19:20.179Z,827.92
2023-09-20T08:21:47.928Z,824.40
2023-09-20T08:24:33.752Z,814.30
2023-09-20T08:27:19.952Z,857.83
2023-09-20T08:30:08.357Z,938.20
2023-09-20T08:32:54.224Z,815.42
2023-09-20T08:35:40.066Z,925.70
2023-09-20T08:38:26.039Z,893.58
2023-09-20T08:41:17.071Z,777.22
2023-09-20T08:44:02.895Z,940.97
2023-09-20T08:46:58.702Z,917.88
2023-09-20T08:49:50.993Z,934.97
2023-09-20T08:52:39.850Z,928.88
2023-09-20T08:55:26.188Z,920.60
2023-09-20T08:58:12.279Z,930.55
2023-09-20T09:00:40.338Z,928.05
2023-09-20T09:03:10.395Z,884.28
2023-09-20T09:05:37.820Z,893.28
2023-09-20T09:08:07.880Z,881.95
2023-09-20T09:10:35.042Z,873.08
2023-09-20T09:13:02.200Z,873.75
2023-09-20T09:15:30.022Z,868.30
2023-09-20T09:18:00.428Z,864.63
2023-09-20T09:20:34.872Z,907.72
2023-09-20T09:23:05.750Z,946.33
2023-09-20T09:25:33.723Z,936.58
2023-09-20T09:28:01.414Z,924.20
2023-09-20T09:30:28.839Z,912.17
2023-09-20T09:32:59.001Z,879.33
2023-09-20T09:35:44.660Z,870.15
2023-09-20T09:38:22.302Z,1.50
2023-09-20T09:40:54.625Z,469.63
2023-09-20T09:43:23.619Z,692.00
2023-09-20T09:45:54.672Z,308.83
2023-09-20T09:48:24.100Z,185.65
2023-09-20T09:50:54.681Z,38.63
2023-09-20T09:53:22.242Z,884.97
2023-09-20T09:55:51.457Z,968.20
2023-09-20T09:58:30.941Z,896.78
2023-09-20T10:01:01.314Z,991.40
2023-09-20T10:03:35.739Z,990.22
2023-09-20T10:06:15.652Z,980.28
2023-09-20T10:08:43.916Z,1032.05
2023-09-20T10:11:12.056Z,1008.10
2023-09-20T10:13:41.218Z,1001.40
2023-09-20T10:16:12.976Z,980.20
2023-09-20T10:18:55.685Z,942.42
2023-09-20T10:21:27.876Z,883.60
2023-09-20T10:23:56.530Z,962.25
2023-09-20T10:26:23.661Z,940.97
2023-09-20T10:29:19.997Z,988.88
2023-09-20T10:31:49.468Z,997.30
2023-09-20T10:34:21.106Z,965.97
2023-09-20T10:36:58.809Z,936.43
2023-09-20T10:39:28.185Z,975.38
2023-09-20T10:41:56.818Z,1006.65
2023-09-20T10:44:36.771Z,979.30
2023-09-20T10:47:09.701Z,969.28
2023-09-20T10:49:44.708Z,982.55
2023-09-20T10:52:15.092Z,944.50
2023-09-20T10:54:43.173Z,954.92
2023-09-20T10:57:13.176Z,948.25
2023-09-20T10:59:45.456Z,966.88
2023-09-20T11:02:18.799Z,998.58
2023-09-20T11:04:48.220Z,996.88
2023-09-20T11:07:15.990Z,968.10
2023-09-20T11:09:48.436Z,940.28
2023-09-20T11:12:15.532Z,936.90
2023-09-20T11:14:43.588Z,933.97
2023-09-20T11:17:14.578Z,929.70
2023-09-20T11:19:41.918Z,918.58
2023-09-20T11:22:09.149Z,591.10
2023-09-20T11:24:37.582Z,959.95
2023-09-20T11:27:05.312Z,924.25
2023-09-20T11:29:36.008Z,905.47
2023-09-20T11:32:04.261Z,898.38
2023-09-20T11:34:49.419Z,999.17
2023-09-20T11:37:18.807Z,995.15
2023-09-20T11:39:49.616Z,997.90
2023-09-20T11:42:29.987Z,1000.50
2023-09-20T11:45:20.919Z,1002.00
2023-09-20T11:47:52.597Z,1028.68
2023-09-20T11:50:20.033Z,1040.88
2023-09-20T11:52:50.599Z,1025.47
2023-09-20T11:55:21.453Z,999.03
2023-09-20T11:57:49.060Z,975.17
2023-09-20T12:00:20.188Z,1033.25
2023-09-20T12:02:47.713Z,1010.97
2023-09-20T12:05:15.400Z,962.03
2023-09-20T12:07:44.057Z,947.20
2023-09-20T12:10:14.307Z,970.00
2023-09-20T12:12:41.371Z,933.60
2023-09-20T12:15:08.806Z,908.88
2023-09-20T12:17:38.112Z,938.88
2023-09-20T12:20:07.157Z,906.15
2023-09-20T12:22:34.228Z,969.28
2023-09-20T12:25:01.309Z,910.90
2023-09-20T12:27:28.497Z,938.90
2023-09-20T12:29:55.848Z,736.38
2023-09-20T12:32:23.041Z,928.78
2023-09-20T12:34:53.032Z,904.05
2023-09-20T12:37:20.784Z,918.45
2023-09-20T12:39:51.794Z,882.25
2023-09-20T12:42:18.936Z,879.53
2023-09-20T12:44:48.859Z,748.92
2023-09-20T12:47:16.240Z,952.00
2023-09-20T12:49:45.526Z,959.15
2023-09-20T12:52:12.594Z,462.85
2023-09-20T12:54:39.955Z,1.85
2023-09-20T12:57:07.176Z,1.02
2023-09-20T12:59:35.082Z,2.00
2023-09-20T13:02:02.297Z,1.17
2023-09-20T13:04:32.432Z,2.22
2023-09-20T13:07:00.130Z,764.75
2023-09-20T13:09:28.412Z,992.95
2023-09-20T13:11:55.621Z,986.35
2023-09-20T13:14:24.374Z,824.17
2023-09-20T13:16:51.659Z,953.30
2023-09-20T13:19:19.159Z,1005.58
2023-09-20T13:21:46.601Z,995.72
2023-09-20T13:24:13.793Z,264.80
2023-09-20T13:26:42.010Z,187.95
2023-09-20T13:29:09.327Z,0.90
2023-09-20T13:31:36.480Z,1.38
2023-09-20T13:34:06.016Z,1.30
2023-09-20T13:36:34.998Z,459.42
2023-09-20T13:39:02.129Z,1004.80
2023-09-20T13:41:29.355Z,841.47
2023-09-20T13:44:01.461Z,1051.28
2023-09-20T13:46:29.377Z,872.25
2023-09-20T13:48:56.882Z,979.35
2023-09-20T13:51:26.518Z,825.65
2023-09-20T13:53:56.144Z,1009.10
2023-09-20T13:56:24.983Z,1032.75
2023-09-20T13:58:55.748Z,987.10
2023-09-20T14:01:23.433Z,985.47
2023-09-20T14:03:50.669Z,1008.72
2023-09-20T14:06:18.415Z,1013.22
2023-09-20T14:08:45.879Z,1015.33
2023-09-20T14:11:15.342Z,989.85
2023-09-20T14:13:42.847Z,1015.85
2023-09-20T14:16:15.635Z,1023.38
2023-09-20T14:18:46.103Z,1018.33
2023-09-20T14:21:15.420Z,1028.63
2023-09-20T14:23:42.723Z,1011.72
2023-09-20T14:26:22.160Z,997.00
2023-09-20T14:28:49.353Z,1006.13
2023-09-20T14:31:19.407Z,1008.88
2023-09-20T14:33:52.663Z,1010.38
2023-09-20T14:36:20.188Z,998.97
2023-09-20T14:38:47.916Z,997.97
2023-09-20T14:41:17.941Z,1.35
2023-09-20T14:43:45.264Z,89.30
2023-09-20T14:46:15.019Z,182.17
2023-09-20T14:48:45.283Z,303.80
2023-09-20T14:51:16.427Z,518.43
2023-09-20T14:53:43.870Z,867.22
2023-09-20T14:56:12.819Z,982.78
2023-09-20T14:58:39.910Z,856.03
2023-09-20T15:01:13.898Z,630.13
2023-09-20T15:03:41.972Z,360.70
2023-09-20T15:06:16.363Z,393.75
2023-09-20T15:08:44.129Z,309.95
2023-09-20T15:11:14.747Z,973.47
2023-09-20T15:13:49.324Z,1053.07
2023-09-20T15:16:17.515Z,982.60
2023-09-20T15:18:56.378Z,202.20
2023-09-20T15:21:23.691Z,1013.20
2023-09-20T15:23:53.842Z,978.17
2023-09-20T15:26:22.708Z,923.47
2023-09-20T15:28:50.869Z,596.03
2023-09-20T15:31:21.531Z,2.50
2023-09-20T15:33:51.898Z,481.63
2023-09-20T15:36:22.072Z,7.47
2023-09-20T15:38:49.947Z,432.00
2023-09-20T15:41:17.161Z,947.67
2023-09-20T15:43:45.044Z,956.08
2023-09-20T15:46:15.025Z,965.55
2023-09-20T15:48:48.404Z,986.63
2023-09-20T15:51:15.563Z,10.77
2023-09-20T15:53:42.931Z,477.42
2023-09-20T15:56:10.208Z,0.90
2023-09-20T15:58:37.327Z,2.42
2023-09-20T16:01:04.704Z,1.73
2023-09-20T16:03:33.664Z,9.45
2023-09-20T16:06:01.117Z,231.65
2023-09-20T16:08:29.414Z,30.00
2023-09-20T16:11:02.560Z,419.40
2023-09-20T16:13:35.537Z,551.73
2023-09-20T16:16:02.799Z,45.90
2023-09-20T16:18:30.915Z,182.43
2023-09-20T16:20:58.171Z,938.63
2023-09-20T16:23:28.776Z,192.17
2023-09-20T16:25:55.967Z,7.78
2023-09-20T16:28:24.603Z,273.00
2023-09-20T16:30:52.156Z,66.55
2023-09-20T16:33:19.475Z,33.60
2023-09-20T16:35:46.806Z,392.83
2023-09-20T16:38:17.191Z,596.45
2023-09-20T16:40:44.297Z,303.83
2023-09-20T16:43:17.672Z,855.55
2023-09-20T16:45:45.375Z,123.05
2023-09-20T16:48:13.777Z,249.30
2023-09-20T16:50:46.362Z,225.95
2023-09-20T16:53:13.702Z,723.77
2023-09-20T16:55:41.595Z,233.17
2023-09-20T16:58:14.150Z,725.60
2023-09-20T17:00:41.556Z,866.47
2023-09-20T17:03:11.378Z,957.42
2023-09-20T17:05:42.016Z,810.28
2023-09-20T17:08:14.645Z,446.33
2023-09-20T17:10:44.274Z,167.07
2023-09-20T17:13:11.685Z,143.77
2023-09-20T17:15:38.839Z,393.15
2023-09-20T17:18:07.584Z,183.57
2023-09-20T17:20:34.898Z,145.90
2023-09-20T17:23:04.842Z,160.00
2023-09-20T17:25:31.939Z,2.65
2023-09-20T17:27:59.653Z,5.10
2023-09-20T17:30:27.050Z,3.20
2023-09-20T17:32:59.302Z,3.60
2023-09-20T17:35:27.177Z,0.98
2023-09-20T17:37:54.364Z,1.98
2023-09-20T17:40:21.737Z,4.82
2023-09-20T17:42:50.821Z,1.52
2023-09-20T17:45:18.539Z,3.30
2023-09-20T17:47:46.242Z,14.38
2023-09-20T17:50:16.438Z,1.53
2023-09-20T17:52:46.562Z,3.50
2023-09-20T17:55:13.727Z,613.85
2023-09-20T17:57:40.899Z,580.15
2023-09-20T18:00:12.832Z,140.93
2023-09-20T18:02:40.671Z,134.40
2023-09-20T18:05:08.393Z,311.55
2023-09-20T18:07:35.542Z,495.23
2023-09-20T18:10:03.609Z,30.93
2023-09-20T18:12:30.705Z,38.08
2023-09-20T18:15:03.542Z,258.83
2023-09-20T18:17:34.735Z,1.88
2023-09-20T18:20:02.748Z,615.00
2023-09-20T18:22:29.908Z,801.67
2023-09-20T18:24:59.187Z,8.17
2023-09-20T18:27:30.429Z,8.50
2023-09-20T18:29:58.130Z,9.55
2023-09-20T18:32:25.596Z,9.68
2023-09-20T18:34:52.990Z,157.35
2023-09-20T18:37:23.712Z,73.68
2023-09-20T18:39:50.861Z,246.85
2023-09-20T18:42:20.802Z,184.77
2023-09-20T18:44:50.654Z,484.53
2023-09-20T18:47:33.541Z,328.40
2023-09-20T18:50:09.716Z,546.40
2023-09-20T18:52:39.251Z,492.90
2023-09-20T18:55:07.127Z,369.25
2023-09-20T18:57:34.268Z,1.80
2023-09-20T19:00:01.428Z,2.90
2023-09-20T19:02:28.796Z,31.25
2023-09-20T19:04:56.886Z,12.27
2023-09-20T19:07:24.609Z,98.43
2023-09-20T19:09:55.938Z,117.15
2023-09-20T19:12:23.818Z,724.00
2023-09-20T19:14:56.183Z,452.07
2023-09-20T19:17:33.346Z,537.33
2023-09-20T19:20:00.812Z,677.33
2023-09-20T19:22:27.949Z,603.22
2023-09-20T19:24:55.286Z,49.42
2023-09-20T19:27:25.865Z,110.65
2023-09-20T19:29:54.262Z,284.08
2023-09-20T19:32:24.640Z,19.17
2023-09-20T19:35:00.898Z,57.90
2023-09-20T19:37:37.816Z,385.17
2023-09-20T19:40:06.287Z,146.52
2023-09-20T19:42:36.228Z,4.23
2023-09-20T19:45:10.642Z,3.63
2023-09-20T19:47:37.876Z,173.18
2023-09-20T19:50:06.403Z,111.88
2023-09-20T19:52:33.760Z,3.42
2023-09-20T19:55:07.694Z,8.35
2023-09-20T19:57:35.231Z,3.50
2023-09-20T20:00:24.178Z,28.15
2023-09-20T20:02:51.800Z,31.37
2023-09-20T20:05:22.321Z,3.00
2023-09-20T20:07:59.873Z,2.95
2023-09-20T20:10:28.362Z,2.50
2023-09-20T20:12:59.267Z,3.72
2023-09-20T20:15:26.346Z,2.50
2023-09-20T20:17:56.040Z,3.67
2023-09-20T20:20:29.692Z,2.00
2023-09-20T20:22:57.493Z,2.17
2023-09-20T20:25:26.451Z,4.85
2023-09-20T20:27:56.425Z,2.85
2023-09-20T20:30:23.545Z,1.80
2023-09-20T20:32:50.948Z,4.45
2023-09-20T20:35:21.024Z,1.55
2023-09-20T20:37:48.877Z,1.80
2023-09-20T20:40:16.880Z,2.40
2023-09-20T20:42:45.806Z,2.22
2023-09-20T20:45:17.270Z,7.25
2023-09-20T20:47:47.348Z,2.00
2023-09-20T20:50:32.286Z,2.40
2023-09-20T20:53:00.128Z,2.10
2023-09-20T20:55:29.021Z,1.70
2023-09-20T20:57:58.980Z,2.15
2023-09-20T21:00:32.688Z,2.78
2023-09-20T21:03:14.124Z,2.85
2023-09-20T21:05:45.190Z,3.75
2023-09-20T21:08:13.841Z,6.70
2023-09-20T21:10:41.689Z,4.53
2023-09-20T21:13:17.811Z,3.35
2023-09-20T21:15:48.364Z,2.50
2023-09-20T21:18:17.620Z,3.15
2023-09-20T21:20:46.805Z,3.25
2023-09-20T21:23:14.708Z,3.13
2023-09-20T21:25:41.966Z,4.07
2023-09-20T21:28:09.203Z,2.00
2023-09-20T21:30:39.819Z,4.45
2023-09-20T21:33:10.877Z,2.90
2023-09-20T21:35:38.372Z,1.75
2023-09-20T21:38:09.257Z,1.90
2023-09-20T21:40:39.241Z,2.60
2023-09-20T21:43:08.803Z,4.18
2023-09-20T21:45:36.130Z,4.65
2023-09-20T21:48:07.650Z,3.92
2023-09-20T21:50:36.023Z,2.95
2023-09-20T21:53:07.413Z,3.95
2023-09-20T21:55:34.776Z,2.40
2023-09-20T21:58:02.164Z,3.13
2023-09-20T22:00:29.247Z,3.53
2023-09-20T22:03:06.942Z,2.65
2023-09-20T22:05:34.837Z,5.22
2023-09-20T22:08:03.566Z,2.20
2023-09-20T22:10:38.937Z,2.83
2023-09-20T22:13:10.681Z,5.55
2023-09-20T22:15:41.170Z,2.47
2023-09-20T22:18:29.511Z,3.65
2023-09-20T22:21:13.417Z,3.90
2023-09-20T22:23:41.309Z,5.53
2023-09-20T22:26:08.626Z,7.07
2023-09-20T22:28:39.477Z,3.53
2023-09-20T22:31:08.026Z,4.82
2023-09-20T22:33:35.911Z,4.10
2023-09-20T22:36:14.567Z,4.78
2023-09-20T22:38:43.236Z,4.10
2023-09-20T22:41:10.683Z,4.68
2023-09-20T22:43:39.094Z,4.47
2023-09-20T22:46:12.178Z,4.53
2023-09-20T22:48:40.255Z,4.38
2023-09-20T22:51:07.553Z,2.83
2023-09-20T22:53:35.337Z,5.10
2023-09-20T22:56:11.273Z,2.13
2023-09-20T22:58:39.744Z,3.65
2023-09-20T23:01:07.531Z,2.10
2023-09-20T23:03:34.994Z,2.33
2023-09-20T23:06:02.562Z,4.38
2023-09-20T23:08:38.297Z,3.30
2023-09-20T23:11:11.051Z,1.73
2023-09-20T23:13:40.075Z,3.75
2023-09-20T23:16:16.313Z,2.53
2023-09-20T23:18:46.022Z,4.20
2023-09-20T23:21:16.917Z,4.30
2023-09-20T23:23:49.689Z,3.58
2023-09-20T23:26:17.450Z,2.40
2023-09-20T23:28:44.745Z,2.70
2023-09-20T23:31:18.049Z,3.05
2023-09-20T23:33:49.893Z,5.93
2023-09-20T23:36:17.960Z,2.63
2023-09-20T23:38:49.747Z,2.33
2023-09-20T23:41:21.295Z,2.55
2023-09-20T23:43:52.085Z,1.98
2023-09-20T23:46:23.580Z,2.13
2023-09-20T23:48:52.181Z,2.60
2023-09-20T23:51:20.297Z,3.63
2023-09-20T23:53:49.595Z,2.90
2023-09-20T23:56:18.390Z,3.22
2023-09-20T23:58:46.582Z,3.88
